Sunday, January 20, 2019, 7:38 AM GMT
Back to Local

CYBG, Bagotville, Que.

Location: , , Canada Lat: 48.333
Local Time: 7:38 AM GMT ( 7:38 GMT) Lon: -71
Time Zone: GMT Elev: 521 ft

Show me the last for .
Show Decoded

2019-01-20 07:00 METAR CYBG 200700Z 00000KT 25SM OVC110 M29/M30 A3036 RMK AC8 SLP306 =
2019-01-20 06:00 METAR CYBG 200600Z 00000KT 25SM OVC130 M30/M33 A3038 RMK AC8 SLP312 =
2019-01-20 05:00 METAR CYBG 200500Z 00000KT 25SM OVC110 M29/M32 A3041 RMK AC8 SLP322 =
2019-01-20 04:00 METAR CYBG 200400Z 00000KT 25SM OVC110 M30/M33 A3043 RMK AC8 SLP328 =
2019-01-20 03:00 METAR CYBG 200300Z 00000KT 25SM BKN120 M30/M33 A3044 RMK AC6 SLP333 =
2019-01-20 02:00 METAR CYBG 200200Z 00000KT 25SM BKN140 M29/M32 A3045 RMK AC6 SLP335 =
2019-01-20 01:00 METAR CYBG 200100Z 00000KT 25SM BKN140 M29/M32 A3046 RMK AC6 SLP341 =
2019-01-20 00:00 METAR CYBG 200000Z 31002KT 25SM BKN140 M29/M32 A3046 RMK AC6 SLP341 =
2019-01-19 23:00 METAR CYBG 192300Z 00000KT 25SM OVC140 M28/M31 A3048 RMK AC8 SLP346 =
2019-01-19 22:00 METAR CYBG 192200Z 00000KT 25SM FEW170 BKN250 M28/M31 A3049 RMK AC2CI5 SLP348 =
2019-01-19 21:00 METAR CYBG 192100Z 34005KT 25SM SCT170 BKN250 M28/M31 A3047 RMK AC3CI4 SLP343 =
2019-01-19 20:00 METAR CYBG 192000Z 27005KT 25SM SCT170 BKN250 M28/M32 A3047 RMK AS3CI4 SLP343 =
2019-01-19 19:00 METAR CYBG 191900Z 29006KT 25SM BKN250 M28/M31 A3045 RMK CI6 SLP335 =
2019-01-19 18:00 METAR CYBG 191800Z 30006KT 25SM BKN250 M28/M33 A3049 RMK CI6 SLP348 =
2019-01-19 17:00 METAR CYBG 191700Z 29008KT 25SM BKN250 M27/M30 A3051 RMK CI6 SLP355 =
2019-01-19 16:00 METAR CYBG 191600Z 28010KT 25SM BKN250 M30/M33 A3055 RMK CI5 SLP368 =
2019-01-19 15:00 METAR CYBG 191500Z 28009KT 25SM SCT250 M31/M34 A3053 RMK CI3 SLP360 =
2019-01-19 14:00 METAR CYBG 191400Z 27009KT 25SM SCT250 M31/M33 A3051 RMK CI3 SLP352 =
2019-01-19 13:00 METAR CYBG 191300Z 27007KT 25SM FEW250 M32/M33 A3049 RMK CI1 SLP345 =
2019-01-19 12:00 METAR CYBG 191200Z 27010KT 25SM FEW030 FEW250 M32/M33 A3046 RMK SC1CI1 SLP335 =
2019-01-19 11:00 METAR CYBG 191100Z 27012KT 25SM SKC M31/M34 A3045 RMK SLP330 =
2019-01-19 10:00 METAR CYBG 191000Z 28012G17KT 25SM SKC M30/M33 A3042 RMK SLP320 =
2019-01-19 09:00 METAR CYBG 190900Z 28015KT 25SM SKC M29/M32 A3038 RMK SLP308 =
2019-01-19 08:00 METAR CYBG 190800Z 28016KT 20SM SKC M28/M33 A3035 RMK SLP298 =

Support USWX by starting your Amazon purchase here.